Accueil
METAR-TAF:

METAR-TAF

Aéroports :

Aéroport international de Malacca

Melaka, Malaisie

latitude: 02-16N, longitude: 102-15E, altitude: 11 m

Observation

Le bulletin a été fait il y a 17 minutes, à 19:00 UTC
Vent 2 kt de direction variable
Température 27°C
Humidité 89%
Pression 1008 hPa
Visibilité 10 km ou plus
Quelques nuages à une hauteur de 2800 ft

METAR: WMKM 251900Z VRB02KT 9999 FEW028 27/25 Q1008

Heure: 03:17 (19:17 UTC)

Prévision

Le bulletin a été fait il y a 2 heures et 17 minutes, à 17:00 UTC
Prévision valable du 25 à 18 UTC au 26 à 18 UTC
Vent 5 kt de est/sud-est
Visibilité 10 km ou plus
Quelques nuages à une hauteur de 2800 ft
Probabilité 30% :
Temporairement
du 26 à 00 UTC au 26 à 04 UTC
Visibilité: 5000 m
Quelques nuages à une hauteur de 1700 ft, Cumulonimbus.
Nuages épars à une hauteur de 2000 ft
orage, pluie,

TAF: WMKM 251700Z 2518/2618 11005KT 9999 FEW028 PROB30 TEMPO 2600/2604 5000 TSRA FEW017CB SCT020

Observations et prévisions météorologiques de plus de 4000 aéroports (messages METAR et TAF).

Les stations disponibles sont représentées par des disques jaunes et rouges sur la carte.

Passer la souris dessus pour voir le nom de la station.

Cliquer dessus pour voir les observations et prévisions météorologiques.

Pour changer de carte: cliquez sur les boutons verts avec une croix noire pour zoomer, sur le bouton vert avec un tiret pour effectuer un zoom arrière, ou sur les flèches vertes pour les cartes adjacentes.


METAR-TAF: